sensor_id;sensor_type;location;lat;lon;timestamp;pressure;altitude;pressure_sealevel;temperature;humidity
68654;BME280;55636;51.108;13.622;2023-07-31T00:00:28;100030.72;;;16.41;54.76
68654;BME280;55636;51.108;13.622;2023-07-31T00:01:31;100027.09;;;16.40;54.78
68654;BME280;55636;51.108;13.622;2023-07-31T00:02:33;100034.34;;;16.41;54.55
68654;BME280;55636;51.108;13.622;2023-07-31T00:03:36;100017.91;;;16.40;54.43
68654;BME280;55636;51.108;13.622;2023-07-31T00:04:38;100035.47;;;16.40;54.48
68654;BME280;55636;51.108;13.622;2023-07-31T00:05:41;100018.72;;;16.40;54.57
68654;BME280;55636;51.108;13.622;2023-07-31T00:06:43;100031.84;;;16.40;54.46
68654;BME280;55636;51.108;13.622;2023-07-31T00:07:46;100020.72;;;16.40;54.61
68654;BME280;55636;51.108;13.622;2023-07-31T00:08:48;100023.19;;;16.41;54.13
68654;BME280;55636;51.108;13.622;2023-07-31T00:09:50;100012.84;;;16.42;54.28
68654;BME280;55636;51.108;13.622;2023-07-31T00:10:53;100017.28;;;16.43;54.35
68654;BME280;55636;51.108;13.622;2023-07-31T00:11:56;100018.41;;;16.42;54.37
68654;BME280;55636;51.108;13.622;2023-07-31T00:12:58;100013.38;;;16.44;54.22
68654;BME280;55636;51.108;13.622;2023-07-31T00:14:00;100015.34;;;16.43;54.11
68654;BME280;55636;51.108;13.622;2023-07-31T00:15:03;100016.16;;;16.44;54.18
68654;BME280;55636;51.108;13.622;2023-07-31T00:16:09;100011.41;;;16.44;53.91
68654;BME280;55636;51.108;13.622;2023-07-31T00:17:12;100021.44;;;16.45;53.96
68654;BME280;55636;51.108;13.622;2023-07-31T00:18:15;100014.72;;;16.46;53.57
68654;BME280;55636;51.108;13.622;2023-07-31T00:19:17;100016.69;;;16.46;53.86
68654;BME280;55636;51.108;13.622;2023-07-31T00:20:21;100016.69;;;16.46;53.60
68654;BME280;55636;51.108;13.622;2023-07-31T00:21:24;100018.31;;;16.47;53.51
68654;BME280;55636;51.108;13.622;2023-07-31T00:22:28;100020.28;;;16.46;53.57
68654;BME280;55636;51.108;13.622;2023-07-31T00:23:31;100008.84;;;16.48;53.79
68654;BME280;55636;51.108;13.622;2023-07-31T00:24:33;100018.03;;;16.49;53.68
68654;BME280;55636;51.108;13.622;2023-07-31T00:25:35;100015.53;;;16.47;53.59
68654;BME280;55636;51.108;13.622;2023-07-31T00:26:38;100018.84;;;16.49;53.67
68654;BME280;55636;51.108;13.622;2023-07-31T00:27:40;100017.19;;;16.48;53.17
68654;BME280;55636;51.108;13.622;2023-07-31T00:28:46;100013.28;;;16.49;53.39
68654;BME280;55636;51.108;13.622;2023-07-31T00:29:49;100014.09;;;16.50;53.28
68654;BME280;55636;51.108;13.622;2023-07-31T00:30:51;100012.97;;;16.51;53.48
68654;BME280;55636;51.108;13.622;2023-07-31T00:31:53;100013.81;;;16.51;53.30
68654;BME280;55636;51.108;13.622;2023-07-31T00:32:56;100008.22;;;16.51;53.10
68654;BME280;55636;51.108;13.622;2023-07-31T00:33:58;100011.03;;;16.51;53.17
68654;BME280;55636;51.108;13.622;2023-07-31T00:35:01;99999.56;;;16.53;53.19
68654;BME280;55636;51.108;13.622;2023-07-31T00:36:05;100014.31;;;16.53;53.24
68654;BME280;55636;51.108;13.622;2023-07-31T00:37:08;99998.44;;;16.54;52.92
68654;BME280;55636;51.108;13.622;2023-07-31T00:38:10;100008.41;;;16.55;53.02
68654;BME280;55636;51.108;13.622;2023-07-31T00:39:14;100000.06;;;16.55;52.75
68654;BME280;55636;51.108;13.622;2023-07-31T00:40:16;99996.13;;;16.56;53.16
68654;BME280;55636;51.108;13.622;2023-07-31T00:41:20;99998.09;;;16.55;53.14
68654;BME280;55636;51.108;13.622;2023-07-31T00:42:24;100001.41;;;16.57;53.05
68654;BME280;55636;51.108;13.622;2023-07-31T00:43:26;100000.59;;;16.57;52.82
68654;BME280;55636;51.108;13.622;2023-07-31T00:44:29;100000.59;;;16.57;52.88
68654;BME280;55636;51.108;13.622;2023-07-31T00:45:32;99997.47;;;16.58;52.66
68654;BME280;55636;51.108;13.622;2023-07-31T00:46:34;99998.28;;;16.59;53.03
68654;BME280;55636;51.108;13.622;2023-07-31T00:47:38;99994.69;;;16.58;52.93
68654;BME280;55636;51.108;13.622;2023-07-31T00:48:41;99994.38;;;16.60;52.63
68654;BME280;55636;51.108;13.622;2023-07-31T00:49:44;99996.88;;;16.61;52.76
68654;BME280;55636;51.108;13.622;2023-07-31T00:50:46;99997.16;;;16.60;52.96
68654;BME280;55636;51.108;13.622;2023-07-31T00:51:51;99997.16;;;16.60;52.64
68654;BME280;55636;51.108;13.622;2023-07-31T00:52:54;99994.38;;;16.60;52.47
68654;BME280;55636;51.108;13.622;2023-07-31T00:53:57;99997.72;;;16.62;52.36
68654;BME280;55636;51.108;13.622;2023-07-31T00:55:00;99994.94;;;16.62;52.72
68654;BME280;55636;51.108;13.622;2023-07-31T00:56:05;99990.16;;;16.62;52.74
68654;BME280;55636;51.108;13.622;2023-07-31T00:57:08;99982.66;;;16.63;52.36
68654;BME280;55636;51.108;13.622;2023-07-31T00:58:11;99995.75;;;16.62;52.59
68654;BME280;55636;51.108;13.622;2023-07-31T00:59:13;99992.16;;;16.62;52.55
68654;BME280;55636;51.108;13.622;2023-07-31T01:00:16;99994.63;;;16.63;52.55
68654;BME280;55636;51.108;13.622;2023-07-31T01:01:18;99992.66;;;16.64;52.38
68654;BME280;55636;51.108;13.622;2023-07-31T01:02:21;99990.69;;;16.65;52.63
68654;BME280;55636;51.108;13.622;2023-07-31T01:03:24;99997.94;;;16.66;52.51
68654;BME280;55636;51.108;13.622;2023-07-31T01:04:27;99994.31;;;16.65;52.51
68654;BME280;55636;51.108;13.622;2023-07-31T01:05:36;99985.94;;;16.65;52.51
68654;BME280;55636;51.108;13.622;2023-07-31T01:06:47;99984.00;;;16.66;52.54
68654;BME280;55636;51.108;13.622;2023-07-31T01:07:58;99984.00;;;16.66;52.19
68654;BME280;55636;51.108;13.622;2023-07-31T01:09:21;99984.00;;;16.66;52.33
68654;BME280;55636;51.108;13.622;2023-07-31T01:10:30;99988.41;;;16.67;52.32
68654;BME280;55636;51.108;13.622;2023-07-31T01:11:46;99981.69;;;16.68;52.39
68654;BME280;55636;51.108;13.622;2023-07-31T01:12:51;99980.88;;;16.67;52.22
68654;BME280;55636;51.108;13.622;2023-07-31T01:13:55;99972.53;;;16.67;51.94
68654;BME280;55636;51.108;13.622;2023-07-31T01:15:05;99979.75;;;16.68;52.17
68654;BME280;55636;51.108;13.622;2023-07-31T01:16:10;99976.13;;;16.68;51.83
68654;BME280;55636;51.108;13.622;2023-07-31T01:17:12;99976.13;;;16.68;51.71
68654;BME280;55636;51.108;13.622;2023-07-31T01:18:16;99967.75;;;16.68;52.15
68654;BME280;55636;51.108;13.622;2023-07-31T01:19:22;99971.38;;;16.68;51.83
68654;BME280;55636;51.108;13.622;2023-07-31T01:20:26;99971.69;;;16.67;51.94
68654;BME280;55636;51.108;13.622;2023-07-31T01:23:08;99966.94;;;16.67;52.09
68654;BME280;55636;51.108;13.622;2023-07-31T01:24:25;99968.88;;;16.67;51.96
68654;BME280;55636;51.108;13.622;2023-07-31T01:27:04;99972.84;;;16.66;52.01
68654;BME280;55636;51.108;13.622;2023-07-31T01:28:13;99977.25;;;16.67;52.14
68654;BME280;55636;51.108;13.622;2023-07-31T01:29:27;99967.25;;;16.66;52.08
68654;BME280;55636;51.108;13.622;2023-07-31T01:30:34;99970.88;;;16.66;51.78
68654;BME280;55636;51.108;13.622;2023-07-31T01:31:41;99974.47;;;16.67;51.49
68654;BME280;55636;51.108;13.622;2023-07-31T01:32:47;99966.09;;;16.67;51.67
68654;BME280;55636;51.108;13.622;2023-07-31T01:33:51;99969.72;;;16.67;51.50
68654;BME280;55636;51.108;13.622;2023-07-31T01:34:56;99970.53;;;16.68;51.77
68654;BME280;55636;51.108;13.622;2023-07-31T01:36:00;99968.59;;;16.68;51.68
68654;BME280;55636;51.108;13.622;2023-07-31T01:37:03;99965.28;;;16.66;51.43
68654;BME280;55636;51.108;13.622;2023-07-31T01:38:06;99972.53;;;16.67;51.83
68654;BME280;55636;51.108;13.622;2023-07-31T01:39:08;99968.88;;;16.67;51.78
68654;BME280;55636;51.108;13.622;2023-07-31T01:40:11;99966.09;;;16.67;51.67
68654;BME280;55636;51.108;13.622;2023-07-31T01:41:13;99963.31;;;16.67;51.44
68654;BME280;55636;51.108;13.622;2023-07-31T01:42:18;99961.69;;;16.66;51.63
68654;BME280;55636;51.108;13.622;2023-07-31T01:43:20;99966.09;;;16.67;51.37
68654;BME280;55636;51.108;13.622;2023-07-31T01:44:24;99963.03;;;16.68;51.43
68654;BME280;55636;51.108;13.622;2023-07-31T01:45:26;99961.88;;;16.69;51.52
68654;BME280;55636;51.108;13.622;2023-07-31T01:46:30;99968.59;;;16.68;51.42
68654;BME280;55636;51.108;13.622;2023-07-31T01:47:33;99972.19;;;16.69;51.48
68654;BME280;55636;51.108;13.622;2023-07-31T01:48:35;99971.06;;;16.70;51.41
68654;BME280;55636;51.108;13.622;2023-07-31T01:49:39;99964.66;;;16.69;51.36
68654;BME280;55636;51.108;13.622;2023-07-31T01:50:41;99965.50;;;16.70;51.19
68654;BME280;55636;51.108;13.622;2023-07-31T01:51:43;99967.16;;;16.71;51.28
68654;BME280;55636;51.108;13.622;2023-07-31T01:52:46;99957.94;;;16.70;51.05
68654;BME280;55636;51.108;13.622;2023-07-31T01:53:50;99962.38;;;16.71;51.20
68654;BME280;55636;51.108;13.622;2023-07-31T01:54:52;99961.25;;;16.72;51.42
68654;BME280;55636;51.108;13.622;2023-07-31T01:55:54;99954.56;;;16.73;51.29
68654;BME280;55636;51.108;13.622;2023-07-31T01:56:57;99955.69;;;16.72;51.16
68654;BME280;55636;51.108;13.622;2023-07-31T01:58:00;99957.34;;;16.73;51.48
68654;BME280;55636;51.108;13.622;2023-07-31T01:59:02;99965.06;;;16.76;51.41
68654;BME280;55636;51.108;13.622;2023-07-31T02:00:05;99963.41;;;16.75;51.50
68654;BME280;55636;51.108;13.622;2023-07-31T02:01:12;99953.91;;;16.76;51.13
68654;BME280;55636;51.108;13.622;2023-07-31T02:02:15;99958.34;;;16.77;51.06
68654;BME280;55636;51.108;13.622;2023-07-31T02:03:18;99954.41;;;16.78;51.10
68654;BME280;55636;51.108;13.622;2023-07-31T02:04:20;99954.13;;;16.80;51.27
68654;BME280;55636;51.108;13.622;2023-07-31T02:05:23;99949.34;;;16.80;51.04
68654;BME280;55636;51.108;13.622;2023-07-31T02:06:26;99957.72;;;16.80;50.91
68654;BME280;55636;51.108;13.622;2023-07-31T02:07:29;99955.47;;;16.83;51.17
68654;BME280;55636;51.108;13.622;2023-07-31T02:08:33;99959.88;;;16.84;50.94
68654;BME280;55636;51.108;13.622;2023-07-31T02:09:35;99961.53;;;16.85;50.93
68654;BME280;55636;51.108;13.622;2023-07-31T02:10:38;99958.75;;;16.85;51.28
68654;BME280;55636;51.108;13.622;2023-07-31T02:11:41;99953.69;;;16.87;51.00
68654;BME280;55636;51.108;13.622;2023-07-31T02:12:44;99954.50;;;16.87;51.03
68654;BME280;55636;51.108;13.622;2023-07-31T02:13:46;99953.38;;;16.88;51.17
68654;BME280;55636;51.108;13.622;2023-07-31T02:14:49;99949.44;;;16.89;51.13
68654;BME280;55636;51.108;13.622;2023-07-31T02:15:52;99951.91;;;16.91;51.08
68654;BME280;55636;51.108;13.622;2023-07-31T02:16:55;99954.72;;;16.91;50.83
68654;BME280;55636;51.108;13.622;2023-07-31T02:17:58;99947.16;;;16.91;50.83
68654;BME280;55636;51.108;13.622;2023-07-31T02:19:01;99949.66;;;16.93;50.74
68654;BME280;55636;51.108;13.622;2023-07-31T02:20:04;99946.03;;;16.92;50.57
68654;BME280;55636;51.108;13.622;2023-07-31T02:21:07;99947.38;;;16.95;50.59
68654;BME280;55636;51.108;13.622;2023-07-31T02:22:09;99944.25;;;16.96;50.60
68654;BME280;55636;51.108;13.622;2023-07-31T02:23:11;99949.53;;;16.98;50.71
68654;BME280;55636;51.108;13.622;2023-07-31T02:24:14;99946.44;;;17.00;50.47
68654;BME280;55636;51.108;13.622;2023-07-31T02:25:16;99946.75;;;16.98;50.36
68654;BME280;55636;51.108;13.622;2023-07-31T02:26:20;99949.22;;;17.00;50.42
68654;BME280;55636;51.108;13.622;2023-07-31T02:27:22;99947.78;;;17.02;50.24
68654;BME280;55636;51.108;13.622;2023-07-31T02:28:29;99943.81;;;17.03;50.46
68654;BME280;55636;51.108;13.622;2023-07-31T02:29:32;99948.25;;;17.04;50.39
68654;BME280;55636;51.108;13.622;2023-07-31T02:30:36;99946.00;;;17.06;50.25
68654;BME280;55636;51.108;13.622;2023-07-31T02:31:41;99943.69;;;17.08;49.96
68654;BME280;55636;51.108;13.622;2023-07-31T02:32:43;99945.69;;;17.08;49.92
68654;BME280;55636;51.108;13.622;2023-07-31T02:33:46;99947.34;;;17.09;50.10
68654;BME280;55636;51.108;13.622;2023-07-31T02:34:48;99947.00;;;17.10;49.92
68654;BME280;55636;51.108;13.622;2023-07-31T02:35:51;99940.31;;;17.11;50.27
68654;BME280;55636;51.108;13.622;2023-07-31T02:36:55;99944.75;;;17.12;50.01
68654;BME280;55636;51.108;13.622;2023-07-31T02:37:59;99940.78;;;17.13;49.89
68654;BME280;55636;51.108;13.622;2023-07-31T02:39:01;99942.44;;;17.15;50.10
68654;BME280;55636;51.108;13.622;2023-07-31T02:40:04;99951.34;;;17.17;49.90
68654;BME280;55636;51.108;13.622;2023-07-31T02:41:06;99944.09;;;17.16;49.82
68654;BME280;55636;51.108;13.622;2023-07-31T02:42:09;99949.69;;;17.16;49.70
68654;BME280;55636;51.108;13.622;2023-07-31T02:43:11;99941.00;;;17.17;49.62
68654;BME280;55636;51.108;13.622;2023-07-31T02:44:14;99942.66;;;17.18;49.73
68654;BME280;55636;51.108;13.622;2023-07-31T02:45:16;99940.66;;;17.19;49.69
68654;BME280;55636;51.108;13.622;2023-07-31T02:46:19;99939.22;;;17.21;49.59
68654;BME280;55636;51.108;13.622;2023-07-31T02:47:22;99949.25;;;17.22;49.66
68654;BME280;55636;51.108;13.622;2023-07-31T02:48:25;99945.31;;;17.23;49.70
68654;BME280;55636;51.108;13.622;2023-07-31T02:49:27;99948.13;;;17.23;49.51
68654;BME280;55636;51.108;13.622;2023-07-31T02:50:30;99942.84;;;17.22;49.64
68654;BME280;55636;51.108;13.622;2023-07-31T02:51:34;99939.75;;;17.23;49.41
68654;BME280;55636;51.108;13.622;2023-07-31T02:52:36;99946.13;;;17.24;49.26
68654;BME280;55636;51.108;13.622;2023-07-31T02:53:39;99932.19;;;17.24;49.78
68654;BME280;55636;51.108;13.622;2023-07-31T02:54:43;99934.66;;;17.25;49.50
68654;BME280;55636;51.108;13.622;2023-07-31T02:55:46;99941.06;;;17.26;49.41
68654;BME280;55636;51.108;13.622;2023-07-31T02:56:49;99946.34;;;17.27;49.22
68654;BME280;55636;51.108;13.622;2023-07-31T02:57:51;99944.34;;;17.28;49.21
68654;BME280;55636;51.108;13.622;2023-07-31T02:58:55;99942.91;;;17.30;49.61
68654;BME280;55636;51.108;13.622;2023-07-31T02:59:59;99940.94;;;17.31;49.26
68654;BME280;55636;51.108;13.622;2023-07-31T03:01:02;99939.28;;;17.30;49.31
68654;BME280;55636;51.108;13.622;2023-07-31T03:02:04;99943.75;;;17.31;49.21
68654;BME280;55636;51.108;13.622;2023-07-31T03:03:07;99937.84;;;17.33;49.02
68654;BME280;55636;51.108;13.622;2023-07-31T03:04:10;99937.03;;;17.32;49.08
68654;BME280;55636;51.108;13.622;2023-07-31T03:05:13;99939.81;;;17.32;49.27
68654;BME280;55636;51.108;13.622;2023-07-31T03:06:15;99937.84;;;17.33;49.44
68654;BME280;55636;51.108;13.622;2023-07-31T03:07:18;99946.22;;;17.33;49.11
68654;BME280;55636;51.108;13.622;2023-07-31T03:08:21;99947.03;;;17.33;49.08
68654;BME280;55636;51.108;13.622;2023-07-31T03:09:24;99939.81;;;17.32;49.18
68654;BME280;55636;51.108;13.622;2023-07-31T03:10:26;99954.59;;;17.33;49.51
68654;BME280;55636;51.108;13.622;2023-07-31T03:11:28;99941.44;;;17.33;49.31
68654;BME280;55636;51.108;13.622;2023-07-31T03:12:31;99940.31;;;17.34;49.66
68654;BME280;55636;51.108;13.622;2023-07-31T03:13:33;99942.28;;;17.34;49.63
68654;BME280;55636;51.108;13.622;2023-07-31T03:14:36;99948.69;;;17.34;49.63
68654;BME280;55636;51.108;13.622;2023-07-31T03:15:42;99958.72;;;17.35;49.64
68654;BME280;55636;51.108;13.622;2023-07-31T03:16:46;99959.84;;;17.34;49.82
68654;BME280;55636;51.108;13.622;2023-07-31T03:17:48;99948.34;;;17.36;49.68
68654;BME280;55636;51.108;13.622;2023-07-31T03:18:50;99952.31;;;17.35;49.77
68654;BME280;55636;51.108;13.622;2023-07-31T03:19:53;99956.44;;;17.37;49.83
68654;BME280;55636;51.108;13.622;2023-07-31T03:20:55;99953.13;;;17.35;49.95
68654;BME280;55636;51.108;13.622;2023-07-31T03:22:01;99948.34;;;17.36;50.03
68654;BME280;55636;51.108;13.622;2023-07-31T03:23:03;99952.00;;;17.36;50.33
68654;BME280;55636;51.108;13.622;2023-07-31T03:24:06;99955.28;;;17.38;50.24
68654;BME280;55636;51.108;13.622;2023-07-31T03:25:09;99956.94;;;17.39;50.56
68654;BME280;55636;51.108;13.622;2023-07-31T03:26:12;99954.47;;;17.38;50.41
68654;BME280;55636;51.108;13.622;2023-07-31T03:27:15;99946.09;;;17.38;50.55
68654;BME280;55636;51.108;13.622;2023-07-31T03:28:18;99954.13;;;17.39;50.77
68654;BME280;55636;51.108;13.622;2023-07-31T03:29:20;99956.13;;;17.39;50.52
68654;BME280;55636;51.108;13.622;2023-07-31T03:30:26;99962.03;;;17.37;50.74
68654;BME280;55636;51.108;13.622;2023-07-31T03:31:29;99956.94;;;17.39;50.66
68654;BME280;55636;51.108;13.622;2023-07-31T03:32:32;99956.13;;;17.39;51.10
68654;BME280;55636;51.108;13.622;2023-07-31T03:33:35;99960.56;;;17.40;51.30
68654;BME280;55636;51.108;13.622;2023-07-31T03:34:37;99959.72;;;17.39;51.29
68654;BME280;55636;51.108;13.622;2023-07-31T03:35:40;99954.13;;;17.39;51.34
68654;BME280;55636;51.108;13.622;2023-07-31T03:36:43;99956.44;;;17.37;51.63
68654;BME280;55636;51.108;13.622;2023-07-31T03:37:45;99957.25;;;17.38;51.93
68654;BME280;55636;51.108;13.622;2023-07-31T03:38:47;99961.69;;;17.39;52.08
68654;BME280;55636;51.108;13.622;2023-07-31T03:39:50;99962.84;;;17.38;52.37
68654;BME280;55636;51.108;13.622;2023-07-31T03:40:52;99950.84;;;17.37;52.45
68654;BME280;55636;51.108;13.622;2023-07-31T03:41:55;99960.84;;;17.38;52.56
68654;BME280;55636;51.108;13.622;2023-07-31T03:42:57;99959.22;;;17.37;52.84
68654;BME280;55636;51.108;13.622;2023-07-31T03:43:59;99951.66;;;17.38;53.04
68654;BME280;55636;51.108;13.622;2023-07-31T03:45:02;99950.84;;;17.37;52.81
68654;BME280;55636;51.108;13.622;2023-07-31T03:46:05;99958.38;;;17.37;53.05
68654;BME280;55636;51.108;13.622;2023-07-31T03:47:07;99949.19;;;17.36;53.05
68654;BME280;55636;51.108;13.622;2023-07-31T03:48:12;99952.81;;;17.37;53.46
68654;BME280;55636;51.108;13.622;2023-07-31T03:49:14;99950.66;;;17.34;53.29
68654;BME280;55636;51.108;13.622;2023-07-31T03:50:16;99953.44;;;17.34;53.65
68654;BME280;55636;51.108;13.622;2023-07-31T03:51:20;99950.66;;;17.34;53.76
68654;BME280;55636;51.108;13.622;2023-07-31T03:52:24;99951.78;;;17.33;53.81
68654;BME280;55636;51.108;13.622;2023-07-31T03:53:26;99959.34;;;17.32;54.04
68654;BME280;55636;51.108;13.622;2023-07-31T03:54:30;99957.69;;;17.31;54.23
68654;BME280;55636;51.108;13.622;2023-07-31T03:55:32;99952.13;;;17.31;54.22
68654;BME280;55636;51.108;13.622;2023-07-31T03:56:36;99951.28;;;17.30;54.25
68654;BME280;55636;51.108;13.622;2023-07-31T03:57:40;99948.81;;;17.29;54.30
68654;BME280;55636;51.108;13.622;2023-07-31T03:58:43;99950.25;;;17.26;54.41
68654;BME280;55636;51.108;13.622;2023-07-31T03:59:45;99946.66;;;17.26;54.32
68654;BME280;55636;51.108;13.622;2023-07-31T04:00:48;99957.81;;;17.26;54.65
68654;BME280;55636;51.108;13.622;2023-07-31T04:01:50;99958.63;;;17.26;54.52
68654;BME280;55636;51.108;13.622;2023-07-31T04:02:53;99959.47;;;17.27;54.67
68654;BME280;55636;51.108;13.622;2023-07-31T04:03:55;99954.50;;;17.24;54.66
68654;BME280;55636;51.108;13.622;2023-07-31T04:04:58;99956.47;;;17.23;54.62
68654;BME280;55636;51.108;13.622;2023-07-31T04:06:00;99950.09;;;17.23;54.80
68654;BME280;55636;51.108;13.622;2023-07-31T04:07:03;99950.38;;;17.21;54.67
68654;BME280;55636;51.108;13.622;2023-07-31T04:08:05;99951.53;;;17.20;55.00
68654;BME280;55636;51.108;13.622;2023-07-31T04:09:08;99928.38;;;17.20;55.11
68654;BME280;55636;51.108;13.622;2023-07-31T04:10:10;99933.16;;;17.19;55.04
68654;BME280;55636;51.108;13.622;2023-07-31T04:11:14;99942.31;;;17.20;55.22
68654;BME280;55636;51.108;13.622;2023-07-31T04:12:17;99939.03;;;17.18;54.96
68654;BME280;55636;51.108;13.622;2023-07-31T04:13:22;99941.00;;;17.17;55.53
68654;BME280;55636;51.108;13.622;2023-07-31T04:14:24;99936.53;;;17.16;55.22
68654;BME280;55636;51.108;13.622;2023-07-31T04:15:27;99938.84;;;17.14;55.55
68654;BME280;55636;51.108;13.622;2023-07-31T04:16:29;99936.06;;;17.14;55.58
68654;BME280;55636;51.108;13.622;2023-07-31T04:17:31;99939.97;;;17.13;55.77
68654;BME280;55636;51.108;13.622;2023-07-31T04:18:34;99938.00;;;17.13;55.71
68654;BME280;55636;51.108;13.622;2023-07-31T04:19:36;99932.41;;;17.13;56.05
68654;BME280;55636;51.108;13.622;2023-07-31T04:20:39;99930.78;;;17.12;55.80
68654;BME280;55636;51.108;13.622;2023-07-31T04:21:42;99934.72;;;17.11;55.87
68654;BME280;55636;51.108;13.622;2023-07-31T04:22:45;99939.16;;;17.12;55.92
68654;BME280;55636;51.108;13.622;2023-07-31T04:23:48;99930.28;;;17.10;56.14
68654;BME280;55636;51.108;13.622;2023-07-31T04:24:50;99927.47;;;17.10;56.29
68654;BME280;55636;51.108;13.622;2023-07-31T04:25:52;99936.66;;;17.11;56.24
68654;BME280;55636;51.108;13.622;2023-07-31T04:26:55;99927.81;;;17.09;56.48
68654;BME280;55636;51.108;13.622;2023-07-31T04:27:58;99927.81;;;17.09;56.37
68654;BME280;55636;51.108;13.622;2023-07-31T04:29:00;99927.81;;;17.09;56.50
68654;BME280;55636;51.108;13.622;2023-07-31T04:30:03;99926.97;;;17.08;56.53
68654;BME280;55636;51.108;13.622;2023-07-31T04:31:06;99921.38;;;17.08;56.80
68654;BME280;55636;51.108;13.622;2023-07-31T04:32:08;99932.53;;;17.08;56.88
68654;BME280;55636;51.108;13.622;2023-07-31T04:33:10;99915.00;;;17.08;56.69
68654;BME280;55636;51.108;13.622;2023-07-31T04:34:13;99920.56;;;17.08;56.59
68654;BME280;55636;51.108;13.622;2023-07-31T04:35:17;99920.03;;;17.06;56.89
68654;BME280;55636;51.108;13.622;2023-07-31T04:36:19;99916.44;;;17.05;56.76
68654;BME280;55636;51.108;13.622;2023-07-31T04:37:22;99910.84;;;17.05;56.95
68654;BME280;55636;51.108;13.622;2023-07-31T04:38:24;99919.22;;;17.05;57.15
68654;BME280;55636;51.108;13.622;2023-07-31T04:39:26;99910.03;;;17.05;57.10
68654;BME280;55636;51.108;13.622;2023-07-31T04:40:29;99904.47;;;17.05;57.07
68654;BME280;55636;51.108;13.622;2023-07-31T04:41:31;99917.25;;;17.06;57.07
68654;BME280;55636;51.108;13.622;2023-07-31T04:42:34;99909.19;;;17.04;57.34
68654;BME280;55636;51.108;13.622;2023-07-31T04:43:36;99909.19;;;17.04;57.16
68654;BME280;55636;51.108;13.622;2023-07-31T04:44:42;99906.41;;;17.04;56.98
68654;BME280;55636;51.108;13.622;2023-07-31T04:45:47;99906.41;;;17.04;57.34
68654;BME280;55636;51.108;13.622;2023-07-31T04:46:50;99898.03;;;17.04;57.35
68654;BME280;55636;51.108;13.622;2023-07-31T04:47:53;99902.50;;;17.05;57.34
68654;BME280;55636;51.108;13.622;2023-07-31T04:48:56;99898.88;;;17.05;57.04
68654;BME280;55636;51.108;13.622;2023-07-31T04:49:59;99898.88;;;17.05;57.12
68654;BME280;55636;51.108;13.622;2023-07-31T04:51:01;99896.91;;;17.05;57.34
68654;BME280;55636;51.108;13.622;2023-07-31T04:52:04;99895.25;;;17.04;57.37
68654;BME280;55636;51.108;13.622;2023-07-31T04:53:08;99903.63;;;17.04;57.25
68654;BME280;55636;51.108;13.622;2023-07-31T04:54:10;99898.38;;;17.03;57.48
68654;BME280;55636;51.108;13.622;2023-07-31T04:55:15;99902.50;;;17.05;57.47
68654;BME280;55636;51.108;13.622;2023-07-31T04:56:17;99900.84;;;17.04;57.45
68654;BME280;55636;51.108;13.622;2023-07-31T04:57:21;99900.03;;;17.04;57.43
68654;BME280;55636;51.108;13.622;2023-07-31T04:58:25;99898.03;;;17.04;57.16
68654;BME280;55636;51.108;13.622;2023-07-31T04:59:27;99891.66;;;17.04;57.16
68654;BME280;55636;51.108;13.622;2023-07-31T05:00:29;99896.09;;;17.05;57.31
68654;BME280;55636;51.108;13.622;2023-07-31T05:01:32;99906.41;;;17.04;57.44
68654;BME280;55636;51.108;13.622;2023-07-31T05:02:35;99905.28;;;17.05;57.55
68654;BME280;55636;51.108;13.622;2023-07-31T05:03:37;99893.31;;;17.05;57.50
68654;BME280;55636;51.108;13.622;2023-07-31T05:04:40;99892.97;;;17.06;57.10
68654;BME280;55636;51.108;13.622;2023-07-31T05:05:43;99893.31;;;17.05;57.23
68654;BME280;55636;51.108;13.622;2023-07-31T05:06:46;99896.59;;;17.07;57.14
68654;BME280;55636;51.108;13.622;2023-07-31T05:07:49;99889.34;;;17.06;57.25
68654;BME280;55636;51.108;13.622;2023-07-31T05:08:52;99891.84;;;17.07;57.33
68654;BME280;55636;51.108;13.622;2023-07-31T05:09:55;99889.88;;;17.08;57.46
68654;BME280;55636;51.108;13.622;2023-07-31T05:10:59;99891.84;;;17.07;57.31
68654;BME280;55636;51.108;13.622;2023-07-31T05:12:04;99889.06;;;17.07;57.33
68654;BME280;55636;51.108;13.622;2023-07-31T05:13:07;99894.63;;;17.07;57.49
68654;BME280;55636;51.108;13.622;2023-07-31T05:14:09;99892.34;;;17.09;57.42
68654;BME280;55636;51.108;13.622;2023-07-31T05:15:13;99880.69;;;17.07;57.21
68654;BME280;55636;51.108;13.622;2023-07-31T05:16:17;99888.75;;;17.09;57.32
68654;BME280;55636;51.108;13.622;2023-07-31T05:17:20;99892.66;;;17.08;57.65
68654;BME280;55636;51.108;13.622;2023-07-31T05:18:22;99887.91;;;17.08;57.64
68654;BME280;55636;51.108;13.622;2023-07-31T05:19:25;99877.91;;;17.07;57.35
68654;BME280;55636;51.108;13.622;2023-07-31T05:20:27;99880.69;;;17.07;57.45
68654;BME280;55636;51.108;13.622;2023-07-31T05:21:29;99884.28;;;17.08;57.47
68654;BME280;55636;51.108;13.622;2023-07-31T05:22:32;99888.75;;;17.09;57.32
68654;BME280;55636;51.108;13.622;2023-07-31T05:23:34;99883.97;;;17.09;57.40
68654;BME280;55636;51.108;13.622;2023-07-31T05:24:37;99885.63;;;17.10;57.06
68654;BME280;55636;51.108;13.622;2023-07-31T05:25:39;99882.50;;;17.12;57.16
68654;BME280;55636;51.108;13.622;2023-07-31T05:26:41;99880.56;;;17.12;57.29
68654;BME280;55636;51.108;13.622;2023-07-31T05:27:44;99878.59;;;17.13;57.21
68654;BME280;55636;51.108;13.622;2023-07-31T05:28:46;99882.72;;;17.16;56.87
68654;BME280;55636;51.108;13.622;2023-07-31T05:29:49;99871.56;;;17.16;57.12
68654;BME280;55636;51.108;13.622;2023-07-31T05:30:51;99877.13;;;17.16;57.34
68654;BME280;55636;51.108;13.622;2023-07-31T05:31:53;99871.22;;;17.17;57.23
68654;BME280;55636;51.108;13.622;2023-07-31T05:32:56;99869.28;;;17.18;56.94